Terminal Aerodrome Forecast
Issued by NWS

Home | Current Version | Previous Version | Text Only | Print | Product List | Glossary On
Versions: 1 2 3 4 5 6 7 8 9 10 11 12 13 14 15 16 17 18 19
000
FTUS43 KEAX 202320
TAFSTJ
TAF
KSTJ 202320Z 2100/2124 10006KT 2SM -SHRA BR OVC002
     FM210200 12006KT 2SM BR OVC003
     FM210600 VRB04KT 1/2SM FG BKN003
     FM211200 23006KT 3SM BR BKN015
     FM211600 22007KT 5SM BR BKN035
     FM211800 21008KT P6SM SCT090
     FM212300 VRB03KT P6SM FEW150=

USA.gov is the U.S. government's official web portal to all federal, state and local government web resources and services.